createdAt,value
2019-05-09T00:00:29.072Z,0.00
2019-05-09T00:01:29.059Z,0.00
2019-05-09T00:02:29.052Z,0.00
2019-05-09T00:03:29.037Z,0.00
2019-05-09T00:04:29.042Z,0.00
2019-05-09T00:05:29.014Z,0.00
2019-05-09T00:06:29.001Z,0.00
2019-05-09T00:07:28.989Z,0.00
2019-05-09T00:08:28.979Z,0.00
2019-05-09T00:09:28.984Z,0.00
2019-05-09T00:10:39.348Z,0.00
2019-05-09T00:11:29.945Z,0.00
2019-05-09T00:12:28.934Z,0.00
2019-05-09T00:13:28.922Z,0.00
2019-05-09T00:14:28.952Z,0.00
2019-05-09T00:15:28.896Z,0.00
2019-05-09T00:16:28.884Z,0.00
2019-05-09T00:17:28.877Z,0.00
2019-05-09T00:18:28.864Z,0.00
2019-05-09T00:19:28.855Z,0.00
2019-05-09T00:20:28.864Z,0.00
2019-05-09T00:21:28.827Z,0.00
2019-05-09T00:22:28.819Z,0.00
2019-05-09T00:23:28.809Z,0.00
2019-05-09T00:24:28.794Z,0.00
2019-05-09T00:25:28.785Z,0.00
2019-05-09T00:26:28.790Z,0.00
2019-05-09T00:27:28.761Z,0.00
2019-05-09T00:28:28.757Z,0.00
2019-05-09T00:29:28.735Z,0.00
2019-05-09T00:30:28.725Z,0.00
2019-05-09T00:31:28.729Z,0.00
2019-05-09T00:32:28.703Z,0.00
2019-05-09T00:33:28.696Z,0.00
2019-05-09T00:34:28.678Z,0.00
2019-05-09T00:35:28.666Z,0.00
2019-05-09T00:36:28.675Z,0.00
2019-05-09T00:37:28.644Z,0.00
2019-05-09T00:38:28.631Z,0.00
2019-05-09T00:39:28.621Z,0.00
2019-05-09T00:40:28.610Z,0.00
2019-05-09T00:41:28.623Z,0.00
2019-05-09T00:42:28.585Z,0.00
2019-05-09T00:43:28.578Z,0.00
2019-05-09T00:44:28.559Z,0.00
2019-05-09T00:45:28.553Z,0.00
2019-05-09T00:46:28.555Z,0.00
2019-05-09T00:47:28.525Z,0.00
2019-05-09T00:48:28.515Z,0.00
2019-05-09T00:49:28.502Z,0.00
2019-05-09T00:50:29.670Z,0.00
2019-05-09T00:51:28.497Z,0.00
2019-05-09T00:52:28.470Z,0.00
2019-05-09T00:53:28.455Z,0.00
2019-05-09T00:54:28.447Z,0.00
2019-05-09T00:55:28.434Z,0.00
2019-05-09T00:56:28.466Z,0.00
2019-05-09T00:57:28.412Z,0.00
2019-05-09T00:58:28.397Z,0.00
2019-05-09T00:59:28.389Z,0.00
2019-05-09T01:00:28.378Z,0.00
2019-05-09T01:01:28.365Z,0.00
2019-05-09T01:02:28.372Z,0.00
2019-05-09T01:03:28.341Z,0.00
2019-05-09T01:04:28.329Z,0.00
2019-05-09T01:05:28.319Z,0.00
2019-05-09T01:06:28.305Z,0.00
2019-05-09T01:07:28.315Z,0.00
2019-05-09T01:08:28.281Z,0.00
2019-05-09T01:09:28.272Z,0.00
2019-05-09T01:10:28.259Z,0.00
2019-05-09T01:11:28.248Z,0.00
2019-05-09T01:12:28.257Z,0.00
2019-05-09T01:13:28.226Z,0.00
2019-05-09T01:14:28.212Z,0.00
2019-05-09T01:15:28.201Z,0.00
2019-05-09T01:16:28.189Z,0.00
2019-05-09T01:17:28.198Z,0.00
2019-05-09T01:18:28.169Z,0.00
2019-05-09T01:19:28.154Z,0.00
2019-05-09T01:20:28.145Z,0.00
2019-05-09T01:21:28.136Z,0.00
2019-05-09T01:22:28.140Z,0.00
2019-05-09T01:23:28.108Z,0.00
2019-05-09T01:24:28.103Z,0.00
2019-05-09T01:25:28.089Z,0.00
2019-05-09T01:26:28.073Z,0.00
2019-05-09T01:27:28.080Z,0.00
2019-05-09T01:28:28.049Z,0.00
2019-05-09T01:29:28.042Z,0.00
2019-05-09T01:30:28.025Z,0.00
2019-05-09T01:31:28.015Z,0.00
2019-05-09T01:32:28.021Z,0.00
2019-05-09T01:33:27.991Z,0.00
2019-05-09T01:34:27.978Z,0.00
2019-05-09T01:35:27.967Z,0.00
2019-05-09T01:36:27.956Z,0.00
2019-05-09T01:37:27.967Z,0.00
2019-05-09T01:38:27.934Z,0.00
2019-05-09T01:39:27.921Z,0.00
2019-05-09T01:40:27.909Z,0.00
2019-05-09T01:41:33.401Z,0.00
2019-05-09T01:42:28.910Z,0.00
2019-05-09T01:43:27.873Z,0.00
2019-05-09T01:44:27.861Z,0.00
2019-05-09T01:45:27.867Z,0.00
2019-05-09T01:46:27.841Z,0.00
2019-05-09T01:47:27.827Z,0.00
2019-05-09T01:48:27.839Z,0.00
2019-05-09T01:49:27.813Z,0.00
2019-05-09T01:50:27.794Z,0.00
2019-05-09T01:51:27.779Z,0.00
2019-05-09T01:52:27.770Z,0.00
2019-05-09T01:53:27.775Z,0.00
2019-05-09T01:54:27.750Z,0.00
2019-05-09T01:55:27.733Z,0.00
2019-05-09T01:56:27.723Z,0.00
2019-05-09T01:57:27.712Z,0.00
2019-05-09T01:58:27.722Z,0.00
2019-05-09T01:59:27.692Z,0.00
2019-05-09T02:00:27.678Z,0.00
2019-05-09T02:01:27.665Z,0.00
2019-05-09T02:02:27.857Z,0.00
2019-05-09T02:03:27.664Z,0.00
2019-05-09T02:04:27.631Z,0.00
2019-05-09T02:05:27.621Z,0.00
2019-05-09T02:06:27.610Z,0.00
2019-05-09T02:07:27.597Z,0.00
2019-05-09T02:08:27.608Z,0.00
2019-05-09T02:09:27.574Z,0.00
2019-05-09T02:10:27.559Z,0.00
2019-05-09T02:11:39.398Z,0.00
2019-05-09T02:12:28.538Z,0.00
2019-05-09T02:13:27.529Z,0.00
2019-05-09T02:14:27.534Z,0.00
2019-05-09T02:15:27.503Z,0.00
2019-05-09T02:16:27.490Z,0.00
2019-05-09T02:17:27.483Z,0.00
2019-05-09T02:18:27.468Z,0.00
2019-05-09T02:19:27.478Z,0.00
2019-05-09T02:20:27.445Z,0.00
2019-05-09T02:21:27.434Z,0.00
2019-05-09T02:22:27.420Z,0.00
2019-05-09T02:23:27.408Z,0.00
2019-05-09T02:24:27.415Z,0.00
2019-05-09T02:25:27.385Z,0.00
2019-05-09T02:26:27.377Z,0.00
2019-05-09T02:27:27.365Z,0.00
2019-05-09T02:28:27.351Z,0.00
2019-05-09T02:29:27.361Z,0.00
2019-05-09T02:30:27.329Z,0.00
2019-05-09T02:31:27.319Z,0.00
2019-05-09T02:32:27.306Z,0.00
2019-05-09T02:33:27.295Z,0.00
2019-05-09T02:34:27.304Z,0.00
2019-05-09T02:35:29.327Z,0.00
2019-05-09T02:36:29.561Z,0.00
2019-05-09T02:37:28.789Z,0.00
2019-05-09T02:38:28.711Z,0.00
2019-05-09T02:39:29.407Z,0.00
2019-05-09T02:40:28.531Z,0.00
2019-05-09T02:41:28.660Z,0.00
2019-05-09T02:42:28.122Z,0.00
2019-05-09T02:43:29.016Z,0.00
2019-05-09T02:44:28.915Z,0.00
2019-05-09T02:45:28.423Z,0.00
2019-05-09T02:46:29.419Z,0.00
2019-05-09T02:47:28.967Z,0.00
2019-05-09T02:48:28.836Z,0.00
2019-05-09T02:49:28.739Z,0.00
2019-05-09T02:50:28.609Z,0.00
2019-05-09T02:51:29.235Z,0.00
2019-05-09T02:52:28.724Z,0.00
2019-05-09T02:53:28.868Z,0.00
2019-05-09T02:54:29.840Z,0.00
2019-05-09T02:55:28.830Z,0.00
2019-05-09T02:56:29.459Z,0.00
2019-05-09T02:57:29.381Z,0.00
2019-05-09T02:58:28.192Z,0.00
2019-05-09T02:59:29.653Z,0.00
2019-05-09T03:00:28.896Z,0.00
2019-05-09T03:01:29.406Z,0.00
2019-05-09T03:02:28.878Z,0.00
2019-05-09T03:03:29.099Z,0.00
2019-05-09T03:04:28.433Z,0.00
2019-05-09T03:05:29.692Z,0.00
2019-05-09T03:06:28.407Z,0.00
2019-05-09T03:07:28.833Z,0.00
2019-05-09T03:08:29.615Z,0.00
2019-05-09T03:09:28.619Z,0.00
2019-05-09T03:10:29.281Z,0.00
2019-05-09T03:11:28.965Z,0.00
2019-05-09T03:12:35.172Z,0.00
2019-05-09T03:13:29.093Z,0.00
2019-05-09T03:14:28.690Z,4.00
2019-05-09T03:15:29.114Z,4.00
2019-05-09T03:16:29.277Z,4.00
2019-05-09T03:17:28.085Z,0.00
2019-05-09T03:18:28.652Z,4.00
2019-05-09T03:19:29.431Z,4.00
2019-05-09T03:20:28.894Z,8.00
2019-05-09T03:21:29.852Z,4.00
2019-05-09T03:22:28.905Z,8.00
2019-05-09T03:23:28.562Z,12.00
2019-05-09T03:24:28.761Z,8.00
2019-05-09T03:25:28.940Z,8.00
2019-05-09T03:26:29.227Z,16.00
2019-05-09T03:27:28.734Z,16.00
2019-05-09T03:28:28.361Z,16.00
2019-05-09T03:29:29.146Z,20.00
2019-05-09T03:30:29.061Z,20.00
2019-05-09T03:31:29.597Z,28.00
2019-05-09T03:32:29.747Z,32.00
2019-05-09T03:33:29.623Z,36.00
2019-05-09T03:34:30.080Z,40.00
2019-05-09T03:35:27.568Z,44.00
2019-05-09T03:36:28.107Z,52.00
2019-05-09T03:37:27.841Z,60.00
2019-05-09T03:38:28.421Z,68.00
2019-05-09T03:39:27.637Z,80.00
2019-05-09T03:40:27.210Z,88.00
2019-05-09T03:41:28.198Z,96.00
2019-05-09T03:42:38.093Z,108.00
2019-05-09T03:43:27.656Z,124.00
2019-05-09T03:44:28.227Z,136.00
2019-05-09T03:45:27.330Z,156.00
2019-05-09T03:46:28.027Z,172.00
2019-05-09T03:47:27.613Z,188.00
2019-05-09T03:48:28.376Z,208.00
2019-05-09T03:49:28.397Z,228.00
2019-05-09T03:50:27.955Z,248.00
2019-05-09T03:51:27.498Z,268.00
2019-05-09T03:52:27.974Z,288.00
2019-05-09T03:53:27.564Z,312.00
2019-05-09T03:54:28.314Z,336.00
2019-05-09T03:55:28.142Z,360.00
2019-05-09T03:56:27.373Z,388.00
2019-05-09T03:57:28.282Z,420.00
2019-05-09T03:58:28.134Z,444.00
2019-05-09T03:59:27.858Z,476.00
2019-05-09T04:00:28.266Z,508.00
2019-05-09T04:01:28.047Z,544.00
2019-05-09T04:02:28.083Z,580.00
2019-05-09T04:03:27.691Z,608.00
2019-05-09T04:04:28.058Z,644.00
2019-05-09T04:05:27.294Z,680.00
2019-05-09T04:06:28.223Z,716.00
2019-05-09T04:07:27.772Z,748.00
2019-05-09T04:08:28.101Z,780.00
2019-05-09T04:09:27.345Z,816.00
2019-05-09T04:10:28.084Z,852.00
2019-05-09T04:11:27.615Z,888.00
2019-05-09T04:12:28.332Z,924.00
2019-05-09T04:13:28.295Z,964.00
2019-05-09T04:14:28.077Z,1000.00
2019-05-09T04:15:27.478Z,1040.00
2019-05-09T04:16:27.689Z,1080.00
2019-05-09T04:17:28.054Z,1124.00
2019-05-09T04:18:27.738Z,1164.00
2019-05-09T04:19:27.587Z,1204.00
2019-05-09T04:20:27.692Z,1244.00
2019-05-09T04:21:27.986Z,1288.00
2019-05-09T04:22:27.144Z,1336.00
2019-05-09T04:23:27.517Z,1388.00
2019-05-09T04:24:27.976Z,1440.00
2019-05-09T04:25:27.362Z,1496.00
2019-05-09T04:26:27.685Z,1560.00
2019-05-09T04:27:29.664Z,1612.00
2019-05-09T04:28:27.773Z,1676.00
2019-05-09T04:29:28.409Z,1728.00
2019-05-09T04:30:27.438Z,1776.00
2019-05-09T04:31:27.828Z,1816.00
2019-05-09T04:32:27.379Z,1868.00
2019-05-09T04:33:27.812Z,1920.00
2019-05-09T04:34:27.539Z,1968.00
2019-05-09T04:35:27.832Z,2012.00
2019-05-09T04:36:27.335Z,2056.00
2019-05-09T04:37:28.120Z,2100.00
2019-05-09T04:38:27.934Z,2140.00
2019-05-09T04:39:28.013Z,2180.00
2019-05-09T04:40:31.140Z,2224.00
2019-05-09T04:41:28.559Z,2268.00
2019-05-09T04:42:25.814Z,2304.00
2019-05-09T04:43:34.302Z,2344.00
2019-05-09T04:44:28.388Z,2384.00
2019-05-09T04:45:28.171Z,2424.00
2019-05-09T04:46:27.738Z,2464.00
2019-05-09T04:47:27.648Z,2404.00
2019-05-09T04:48:28.037Z,2456.00
2019-05-09T04:49:39.259Z,2612.00
2019-05-09T04:50:27.951Z,2644.00
2019-05-09T04:51:25.692Z,2656.00
2019-05-09T04:52:27.823Z,2684.00
2019-05-09T04:53:25.668Z,2720.00
2019-05-09T04:54:27.878Z,2736.00
2019-05-09T04:55:27.325Z,2752.00
2019-05-09T04:56:27.736Z,2772.00
2019-05-09T04:57:27.758Z,2816.00
2019-05-09T04:58:27.382Z,2876.00
2019-05-09T04:59:28.142Z,2924.00
2019-05-09T05:00:27.338Z,2944.00
2019-05-09T05:01:27.987Z,3000.00
2019-05-09T05:02:27.557Z,3024.00
2019-05-09T05:03:25.555Z,3064.00
2019-05-09T05:04:25.540Z,3132.00
2019-05-09T05:05:25.526Z,3152.00
2019-05-09T05:06:27.907Z,3180.00
2019-05-09T05:07:25.505Z,3148.00
2019-05-09T05:08:25.513Z,3104.00
2019-05-09T05:09:27.594Z,3088.00
2019-05-09T05:10:27.351Z,3088.00
2019-05-09T05:11:27.762Z,3128.00
2019-05-09T05:12:27.586Z,3188.00
2019-05-09T05:13:29.018Z,3080.00
2019-05-09T05:14:25.421Z,3092.00
2019-05-09T05:15:27.557Z,3380.00
2019-05-09T05:16:27.409Z,3448.00
2019-05-09T05:17:25.388Z,3484.00
2019-05-09T05:18:25.397Z,3576.00
2019-05-09T05:19:25.365Z,3708.00
2019-05-09T05:20:27.633Z,3900.00
2019-05-09T05:21:25.341Z,3992.00
2019-05-09T05:22:25.329Z,4052.00
2019-05-09T05:23:27.470Z,4116.00
2019-05-09T05:24:27.657Z,4168.00
2019-05-09T05:25:25.294Z,4208.00
2019-05-09T05:26:27.573Z,4260.00
2019-05-09T05:27:27.654Z,4256.00
2019-05-09T05:28:27.687Z,4172.00
2019-05-09T05:29:25.247Z,4128.00
2019-05-09T05:30:25.236Z,4228.00
2019-05-09T05:31:25.225Z,4408.00
2019-05-09T05:32:25.212Z,4424.00
2019-05-09T05:33:27.654Z,4432.00
2019-05-09T05:34:27.330Z,4500.00
2019-05-09T05:35:25.177Z,4564.00
2019-05-09T05:36:25.167Z,4556.00
2019-05-09T05:37:25.156Z,4572.00
2019-05-09T05:38:26.991Z,4584.00
2019-05-09T05:39:25.142Z,4648.00
2019-05-09T05:40:25.118Z,4724.00
2019-05-09T05:41:25.109Z,4584.00
2019-05-09T05:42:27.688Z,4756.00
2019-05-09T05:43:38.540Z,4980.00
2019-05-09T05:44:28.123Z,5092.00
2019-05-09T05:45:25.061Z,5200.00
2019-05-09T05:46:25.051Z,5260.00
2019-05-09T05:47:27.243Z,5344.00
2019-05-09T05:48:25.046Z,5428.00
2019-05-09T05:49:25.038Z,5500.00
2019-05-09T05:50:25.026Z,5572.00
2019-05-09T05:51:24.994Z,5672.00
2019-05-09T05:52:24.984Z,5760.00
2019-05-09T05:53:24.975Z,5856.00
2019-05-09T05:54:27.524Z,5996.00
2019-05-09T05:55:27.318Z,6104.00
2019-05-09T05:56:24.938Z,6264.00
2019-05-09T05:57:24.927Z,6604.00
2019-05-09T05:58:24.916Z,7064.00
2019-05-09T05:59:24.922Z,7688.00
2019-05-09T06:00:24.894Z,8404.00
2019-05-09T06:01:24.883Z,9436.00
2019-05-09T06:02:24.869Z,10716.00
2019-05-09T06:03:24.860Z,11944.00
2019-05-09T06:04:27.405Z,13080.00
2019-05-09T06:05:24.834Z,13756.00
2019-05-09T06:06:24.824Z,13592.00
2019-05-09T06:07:24.813Z,12580.00
2019-05-09T06:08:24.801Z,11160.00
2019-05-09T06:09:24.808Z,10344.00
2019-05-09T06:10:24.776Z,9908.00
2019-05-09T06:11:24.763Z,9212.00
2019-05-09T06:12:24.793Z,9392.00
2019-05-09T06:13:24.741Z,9520.00
2019-05-09T06:14:24.748Z,9640.00
2019-05-09T06:15:24.715Z,9680.00
2019-05-09T06:16:24.707Z,9688.00
2019-05-09T06:17:24.694Z,9876.00
2019-05-09T06:18:24.681Z,10352.00
2019-05-09T06:19:24.688Z,11036.00
2019-05-09T06:20:24.658Z,11880.00
2019-05-09T06:21:24.646Z,12688.00
2019-05-09T06:22:24.637Z,13384.00
2019-05-09T06:23:24.624Z,13816.00
2019-05-09T06:24:24.631Z,13908.00
2019-05-09T06:25:24.602Z,13756.00
2019-05-09T06:26:24.589Z,14088.00
2019-05-09T06:27:24.577Z,14940.00
2019-05-09T06:28:24.567Z,32928.00
2019-05-09T06:29:24.571Z,54624.00
2019-05-09T06:30:24.542Z,52128.00
2019-05-09T06:31:24.535Z,12928.00
2019-05-09T06:32:24.521Z,11628.00
2019-05-09T06:33:24.508Z,18368.00
2019-05-09T06:34:24.515Z,21408.00
2019-05-09T06:35:24.484Z,43328.00
2019-05-09T06:36:24.475Z,31040.00
2019-05-09T06:37:24.462Z,21600.00
2019-05-09T06:38:24.449Z,18400.00
2019-05-09T06:39:24.479Z,17344.00
2019-05-09T06:40:24.431Z,18528.00
2019-05-09T06:41:24.413Z,19360.00
2019-05-09T06:42:25.472Z,19232.00
2019-05-09T06:43:24.392Z,20736.00
2019-05-09T06:44:24.379Z,41504.00
2019-05-09T06:45:24.388Z,40096.00
2019-05-09T06:46:24.362Z,71392.00
2019-05-09T06:47:24.362Z,76704.00
2019-05-09T06:48:24.335Z,74784.00
2019-05-09T06:49:29.294Z,87072.00
2019-05-09T06:50:27.172Z,80416.00
2019-05-09T06:51:24.298Z,63488.00
2019-05-09T06:52:24.287Z,66336.00
2019-05-09T06:53:24.274Z,85312.00
2019-05-09T06:54:24.264Z,121440.00
2019-05-09T06:55:24.269Z,116096.00
2019-05-09T06:56:24.241Z,89088.00
2019-05-09T06:57:24.231Z,64896.00
2019-05-09T06:58:24.217Z,51296.00
2019-05-09T06:59:24.205Z,49696.00
2019-05-09T07:00:24.215Z,49504.00
2019-05-09T07:01:24.190Z,50048.00
2019-05-09T07:02:24.172Z,47328.00
2019-05-09T07:03:24.160Z,49248.00
2019-05-09T07:04:24.150Z,47488.00
2019-05-09T07:05:24.178Z,48000.00
2019-05-09T07:06:24.127Z,49728.00
2019-05-09T07:07:24.115Z,49184.00
2019-05-09T07:08:24.103Z,46976.00
2019-05-09T07:09:24.091Z,30784.00
2019-05-09T07:10:24.083Z,34496.00
2019-05-09T07:11:24.090Z,32672.00
2019-05-09T07:12:24.056Z,35136.00
2019-05-09T07:13:24.047Z,33856.00
2019-05-09T07:14:28.677Z,34272.00
2019-05-09T07:15:25.021Z,34784.00
2019-05-09T07:16:24.031Z,38592.00
2019-05-09T07:17:24.002Z,28640.00
2019-05-09T07:18:23.989Z,28928.00
2019-05-09T07:19:23.977Z,31552.00
2019-05-09T07:20:23.972Z,39808.00
2019-05-09T07:21:23.977Z,53120.00
2019-05-09T07:22:23.945Z,50144.00
2019-05-09T07:23:23.935Z,48416.00
2019-05-09T07:24:23.931Z,52192.00
2019-05-09T07:25:23.912Z,54816.00
2019-05-09T07:26:23.920Z,57696.00
2019-05-09T07:27:23.890Z,57600.00
2019-05-09T07:28:23.891Z,51360.00
2019-05-09T07:29:23.866Z,52960.00
2019-05-09T07:30:23.859Z,55648.00
2019-05-09T07:31:23.860Z,56160.00
2019-05-09T07:32:23.831Z,52960.00
2019-05-09T07:33:23.822Z,58432.00
2019-05-09T07:34:23.809Z,55552.00
2019-05-09T07:35:23.799Z,57120.00
2019-05-09T07:36:23.812Z,58816.00
2019-05-09T07:37:23.774Z,60448.00
2019-05-09T07:38:23.766Z,60704.00
2019-05-09T07:39:23.752Z,62048.00
2019-05-09T07:40:26.897Z,61760.00
2019-05-09T07:41:24.769Z,59552.00
2019-05-09T07:42:23.721Z,59712.00
2019-05-09T07:43:23.708Z,63104.00
2019-05-09T07:44:23.697Z,65120.00
2019-05-09T07:45:23.684Z,65184.00
2019-05-09T07:46:23.673Z,63584.00
2019-05-09T07:47:23.679Z,63520.00
2019-05-09T07:48:23.652Z,64128.00
2019-05-09T07:49:23.639Z,60192.00
2019-05-09T07:50:23.633Z,58816.00
2019-05-09T07:51:23.620Z,54752.00
2019-05-09T07:52:23.627Z,58112.00
2019-05-09T07:53:23.598Z,60320.00
2019-05-09T07:54:25.663Z,62304.00
2019-05-09T07:55:23.576Z,63360.00
2019-05-09T07:56:23.563Z,64768.00
2019-05-09T07:57:23.574Z,64192.00
2019-05-09T07:58:23.542Z,59232.00
2019-05-09T07:59:23.534Z,54240.00
2019-05-09T08:00:23.525Z,49696.00
2019-05-09T08:01:23.522Z,61664.00
2019-05-09T08:02:23.516Z,58944.00
2019-05-09T08:03:23.490Z,55456.00
2019-05-09T08:04:25.324Z,55840.00
2019-05-09T08:05:23.466Z,55552.00
2019-05-09T08:06:23.456Z,59552.00
2019-05-09T08:07:23.466Z,57408.00
2019-05-09T08:08:23.444Z,60960.00
2019-05-09T08:09:23.423Z,62336.00
2019-05-09T08:10:23.410Z,62112.00
2019-05-09T08:11:23.402Z,59744.00
2019-05-09T08:12:23.391Z,59616.00
2019-05-09T08:13:23.397Z,46656.00
2019-05-09T08:14:23.375Z,38304.00
2019-05-09T08:15:23.358Z,59744.00
2019-05-09T08:16:23.398Z,75872.00
2019-05-09T08:17:23.334Z,73824.00
2019-05-09T08:18:23.348Z,75904.00
2019-05-09T08:19:23.312Z,98816.00
2019-05-09T08:20:23.303Z,95296.00
2019-05-09T08:21:23.293Z,101728.00
2019-05-09T08:22:26.051Z,100160.00
2019-05-09T08:23:23.267Z,98656.00
2019-05-09T08:24:23.279Z,96288.00
2019-05-09T08:25:23.249Z,95808.00
2019-05-09T08:26:23.247Z,90848.00
2019-05-09T08:27:23.225Z,70144.00
2019-05-09T08:28:23.216Z,65760.00
2019-05-09T08:29:23.223Z,50848.00
2019-05-09T08:30:23.195Z,60640.00
2019-05-09T08:31:23.183Z,48032.00
2019-05-09T08:32:23.171Z,48512.00
2019-05-09T08:33:23.162Z,57984.00
2019-05-09T08:34:23.169Z,70272.00
2019-05-09T08:35:23.139Z,71328.00
2019-05-09T08:36:23.127Z,98848.00
2019-05-09T08:37:23.116Z,120000.00
2019-05-09T08:38:23.107Z,129024.00
2019-05-09T08:39:23.113Z,136640.00
2019-05-09T08:40:23.086Z,113984.00
2019-05-09T08:41:23.074Z,106688.00
2019-05-09T08:42:23.062Z,138656.00
2019-05-09T08:43:23.056Z,109408.00
2019-05-09T08:44:23.058Z,118752.00
2019-05-09T08:45:27.533Z,70400.00
2019-05-09T08:46:24.024Z,46464.00
2019-05-09T08:47:23.015Z,27968.00
2019-05-09T08:48:22.999Z,24032.00
2019-05-09T08:49:23.007Z,29760.00
2019-05-09T08:50:22.975Z,55904.00
2019-05-09T08:51:22.962Z,25088.00
2019-05-09T08:52:22.951Z,23936.00
2019-05-09T08:53:22.941Z,31040.00
2019-05-09T08:54:22.950Z,77440.00
2019-05-09T08:55:22.921Z,82944.00
2019-05-09T08:56:22.908Z,87968.00
2019-05-09T08:57:22.899Z,33888.00
2019-05-09T08:58:22.887Z,43552.00
2019-05-09T08:59:22.892Z,26432.00
2019-05-09T09:00:22.862Z,26528.00
2019-05-09T09:01:29.693Z,23136.00
2019-05-09T09:02:23.838Z,20544.00
2019-05-09T09:03:22.833Z,26880.00
2019-05-09T09:04:22.840Z,31744.00
2019-05-09T09:05:22.805Z,33664.00
2019-05-09T09:06:22.800Z,31680.00
2019-05-09T09:07:22.783Z,160928.00
2019-05-09T09:08:22.772Z,114496.00
2019-05-09T09:09:22.763Z,126016.00
2019-05-09T09:10:22.768Z,143552.00
2019-05-09T09:11:22.739Z,123072.00
2019-05-09T09:12:30.567Z,31264.00
2019-05-09T09:13:23.714Z,109696.00
2019-05-09T09:14:22.706Z,126464.00
2019-05-09T09:15:22.710Z,25120.00
2019-05-09T09:16:22.783Z,24192.00
2019-05-09T09:17:22.699Z,33472.00
2019-05-09T09:18:22.672Z,28576.00
2019-05-09T09:19:22.650Z,23872.00
2019-05-09T09:20:22.655Z,33184.00
2019-05-09T09:21:22.623Z,27872.00
2019-05-09T09:22:22.617Z,22368.00
2019-05-09T09:23:22.601Z,23168.00
2019-05-09T09:24:22.590Z,35776.00
2019-05-09T09:25:22.597Z,33056.00
2019-05-09T09:26:22.567Z,41696.00
2019-05-09T09:27:22.554Z,163584.00
2019-05-09T09:28:22.544Z,69536.00
2019-05-09T09:29:22.535Z,163200.00
2019-05-09T09:30:25.110Z,120384.00
2019-05-09T09:31:22.508Z,148608.00
2019-05-09T09:32:22.501Z,150880.00
2019-05-09T09:33:22.488Z,40000.00
2019-05-09T09:34:22.475Z,40288.00
2019-05-09T09:35:22.464Z,27328.00
2019-05-09T09:36:22.475Z,32320.00
2019-05-09T09:37:22.444Z,26944.00
2019-05-09T09:38:22.435Z,98784.00
2019-05-09T09:39:22.420Z,22048.00
2019-05-09T09:40:22.413Z,21376.00
2019-05-09T09:41:22.417Z,19072.00
2019-05-09T09:42:22.387Z,20192.00
2019-05-09T09:43:22.374Z,24288.00
2019-05-09T09:44:22.642Z,32032.00
2019-05-09T09:45:22.351Z,154208.00
2019-05-09T09:46:22.358Z,103200.00
2019-05-09T09:47:23.518Z,57888.00
2019-05-09T09:48:22.319Z,45088.00
2019-05-09T09:49:22.307Z,148352.00
2019-05-09T09:50:22.296Z,67264.00
2019-05-09T09:51:22.323Z,152832.00
2019-05-09T09:52:22.280Z,155584.00
2019-05-09T09:53:22.265Z,33984.00
2019-05-09T09:54:22.250Z,72416.00
2019-05-09T09:55:22.239Z,166816.00
2019-05-09T09:56:22.670Z,50880.00
2019-05-09T09:57:22.242Z,26944.00
2019-05-09T09:58:22.208Z,21920.00
2019-05-09T09:59:22.194Z,27168.00
2019-05-09T10:00:22.182Z,152832.00
2019-05-09T10:01:22.171Z,29376.00
2019-05-09T10:02:22.177Z,28384.00
2019-05-09T10:03:22.346Z,143648.00
2019-05-09T10:04:24.374Z,136256.00
2019-05-09T10:05:22.127Z,128928.00
2019-05-09T10:06:22.123Z,131552.00
2019-05-09T10:07:22.123Z,129280.00
2019-05-09T10:08:22.096Z,116448.00
2019-05-09T10:09:22.083Z,109024.00
2019-05-09T10:10:22.075Z,104736.00
2019-05-09T10:11:22.063Z,105376.00
2019-05-09T10:12:22.068Z,98784.00
2019-05-09T10:13:22.042Z,89888.00
2019-05-09T10:14:22.031Z,105920.00
2019-05-09T10:15:22.018Z,29024.00
2019-05-09T10:16:28.743Z,104128.00
2019-05-09T10:17:23.015Z,108704.00
2019-05-09T10:18:21.988Z,21728.00
2019-05-09T10:19:21.973Z,33984.00
2019-05-09T10:20:22.011Z,67904.00
2019-05-09T10:21:21.953Z,42688.00
2019-05-09T10:22:24.842Z,34496.00
2019-05-09T10:23:21.952Z,36832.00
2019-05-09T10:24:21.924Z,34816.00
2019-05-09T10:25:21.912Z,25856.00
2019-05-09T10:26:21.899Z,23296.00
2019-05-09T10:27:21.887Z,21344.00
2019-05-09T10:28:21.974Z,21088.00
2019-05-09T10:29:21.863Z,20928.00
2019-05-09T10:30:21.850Z,24000.00
2019-05-09T10:31:21.882Z,26016.00
2019-05-09T10:32:21.832Z,24000.00
2019-05-09T10:33:21.837Z,21824.00
2019-05-09T10:34:21.806Z,21760.00
2019-05-09T10:35:21.793Z,22656.00
2019-05-09T10:36:21.782Z,45376.00
2019-05-09T10:37:21.771Z,25312.00
2019-05-09T10:38:21.781Z,25184.00
2019-05-09T10:39:21.750Z,29408.00
2019-05-09T10:40:21.770Z,50496.00
2019-05-09T10:41:21.726Z,100416.00
2019-05-09T10:42:21.714Z,122464.00
2019-05-09T10:43:34.752Z,124320.00
2019-05-09T10:44:22.695Z,36224.00
2019-05-09T10:45:21.680Z,38976.00
2019-05-09T10:46:21.670Z,137760.00
2019-05-09T10:47:21.657Z,47616.00
2019-05-09T10:48:23.924Z,91456.00
2019-05-09T10:49:21.635Z,90048.00
2019-05-09T10:50:33.771Z,44000.00
2019-05-09T10:51:22.612Z,46688.00
2019-05-09T10:52:21.603Z,88256.00
2019-05-09T10:53:21.588Z,65984.00
2019-05-09T10:54:21.598Z,54592.00
2019-05-09T10:55:21.568Z,46112.00
2019-05-09T10:56:21.556Z,46752.00
2019-05-09T10:57:21.546Z,41248.00
2019-05-09T10:58:23.808Z,71200.00
2019-05-09T10:59:21.540Z,73376.00
2019-05-09T11:00:21.509Z,75968.00
2019-05-09T11:01:21.495Z,66496.00
2019-05-09T11:02:21.487Z,58720.00
2019-05-09T11:03:21.504Z,67872.00
2019-05-09T11:04:21.485Z,97440.00
2019-05-09T11:05:21.459Z,109408.00
2019-05-09T11:06:21.440Z,109120.00
2019-05-09T11:07:21.436Z,76544.00
2019-05-09T11:08:21.421Z,102208.00
2019-05-09T11:09:21.424Z,33632.00
2019-05-09T11:10:27.763Z,104352.00
2019-05-09T11:11:22.426Z,94688.00
2019-05-09T11:12:21.372Z,98112.00
2019-05-09T11:13:21.365Z,31488.00
2019-05-09T11:14:35.976Z,95104.00
2019-05-09T11:15:22.337Z,95040.00
2019-05-09T11:16:21.334Z,34368.00
2019-05-09T11:17:21.993Z,130784.00
2019-05-09T11:18:21.311Z,134976.00
2019-05-09T11:19:21.318Z,29248.00
2019-05-09T11:20:21.288Z,141408.00
2019-05-09T11:21:21.274Z,45024.00
2019-05-09T11:22:23.434Z,25184.00
2019-05-09T11:23:21.256Z,23296.00
2019-05-09T11:24:21.251Z,24096.00
2019-05-09T11:25:21.252Z,36416.00
2019-05-09T11:26:21.219Z,63168.00
2019-05-09T11:27:21.208Z,147264.00
2019-05-09T11:28:21.198Z,28032.00
2019-05-09T11:29:21.187Z,30784.00
2019-05-09T11:30:21.194Z,25344.00
2019-05-09T11:31:21.399Z,22176.00
2019-05-09T11:32:21.150Z,21152.00
2019-05-09T11:33:21.143Z,20480.00
2019-05-09T11:34:21.127Z,20800.00
2019-05-09T11:35:21.151Z,22976.00
2019-05-09T11:36:21.397Z,25952.00
2019-05-09T11:37:22.293Z,30048.00
2019-05-09T11:38:32.527Z,33920.00
2019-05-09T11:39:35.766Z,38624.00
2019-05-09T11:40:22.156Z,44480.00
2019-05-09T11:41:21.073Z,50944.00
2019-05-09T11:42:21.053Z,143584.00
2019-05-09T11:43:21.030Z,141696.00
2019-05-09T11:44:21.025Z,139584.00
2019-05-09T11:45:21.032Z,133024.00
2019-05-09T11:46:20.990Z,30944.00
2019-05-09T11:47:32.036Z,26848.00
2019-05-09T11:48:21.972Z,25856.00
2019-05-09T11:49:20.976Z,24384.00
2019-05-09T11:50:23.145Z,23840.00
2019-05-09T11:51:22.840Z,24064.00
2019-05-09T11:52:20.945Z,24256.00
2019-05-09T11:53:20.914Z,24512.00
2019-05-09T11:54:20.937Z,24000.00
2019-05-09T11:55:29.930Z,23488.00
2019-05-09T11:56:21.990Z,22944.00
2019-05-09T11:57:20.866Z,22624.00
2019-05-09T11:58:20.865Z,20640.00
2019-05-09T11:59:20.851Z,18528.00
2019-05-09T12:00:20.845Z,17696.00
2019-05-09T12:01:20.847Z,17536.00
2019-05-09T12:02:20.806Z,18144.00
2019-05-09T12:03:20.812Z,19616.00
2019-05-09T12:04:20.813Z,21440.00
2019-05-09T12:05:20.787Z,24096.00
2019-05-09T12:06:20.785Z,27200.00
2019-05-09T12:07:20.753Z,30144.00
2019-05-09T12:08:20.751Z,31264.00
2019-05-09T12:09:20.748Z,31648.00
2019-05-09T12:10:20.717Z,33248.00
2019-05-09T12:11:20.739Z,40192.00
2019-05-09T12:12:20.705Z,33504.00
2019-05-09T12:13:20.694Z,33696.00